Time;durP1;ratioP1;P1;durP2;ratioP2;P2;SDS_P1;SDS_P2;PMS_P1;PMS_P2;Temp;Humidity;BMP_temperature;BMP_pressure;BME280_temperature;BME280_humidity;BME280_pressure;Samples;Min_cycle;Max_cycle;Signal;HPM_P1;HPM_P2
2021/06/29 00:00:54;;;;;;;8.80;8.00;;;22.20;99.90;;;;;;5076126;28;21025;-85
2021/06/29 00:03:21;;;;;;;9.37;8.47;;;22.20;99.90;;;;;;5083050;28;20639;-85
2021/06/29 00:05:49;;;;;;;11.80;8.30;;;22.20;99.90;;;;;;5080458;28;20994;-85
2021/06/29 00:08:16;;;;;;;10.07;8.80;;;22.20;99.90;;;;;;5077565;28;21196;-85
2021/06/29 00:10:44;;;;;;;8.63;7.83;;;22.20;99.90;;;;;;5074859;28;20958;-85
2021/06/29 00:13:11;;;;;;;10.60;9.60;;;22.20;99.90;;;;;;5078741;28;20809;-84
2021/06/29 00:15:39;;;;;;;10.40;9.40;;;22.30;99.90;;;;;;5082846;28;20528;-85
2021/06/29 00:18:06;;;;;;;13.73;10.60;;;22.30;99.90;;;;;;5082442;28;21072;-84
2021/06/29 00:20:33;;;;;;;12.03;10.87;;;22.30;99.90;;;;;;5078435;28;20462;-83
2021/06/29 00:23:01;;;;;;;15.13;11.83;;;22.30;99.90;;;;;;5081523;28;20841;-82
2021/06/29 00:25:29;;;;;;;21.17;13.00;;;22.40;99.90;;;;;;5082110;28;20457;-82
2021/06/29 00:27:57;;;;;;;15.73;12.20;;;22.40;99.90;;;;;;5073910;28;20469;-83
2021/06/29 00:30:24;;;;;;;16.20;12.63;;;22.40;99.90;;;;;;5075453;28;20980;-85
2021/06/29 00:32:51;;;;;;;14.90;13.50;;;22.30;99.90;;;;;;5079717;28;20873;-84
2021/06/29 00:35:18;;;;;;;17.10;15.57;;;22.30;99.90;;;;;;5076775;28;20488;-85
2021/06/29 00:37:45;;;;;;;13.67;12.20;;;22.10;99.90;;;;;;5076947;28;20577;-86
2021/06/29 00:40:16;;;;;;;12.00;10.90;;;21.50;99.90;;;;;;5081458;28;20461;-84
2021/06/29 00:42:43;;;;;;;12.60;10.73;;;21.10;99.90;;;;;;5074222;28;20610;-84
2021/06/29 00:45:12;;;;;;;9.33;8.53;;;20.90;99.90;;;;;;5079612;28;20543;-82
2021/06/29 00:47:39;;;;;;;7.13;6.53;;;20.80;99.90;;;;;;5076417;28;20464;-83
2021/06/29 00:50:08;;;;;;;6.20;5.70;;;20.80;99.90;;;;;;5076987;28;20988;-83
2021/06/29 00:52:35;;;;;;;5.60;5.00;;;20.70;99.90;;;;;;5081708;28;20538;-84
2021/06/29 00:55:02;;;;;;;5.80;5.20;;;20.70;99.90;;;;;;5073739;28;20458;-83
2021/06/29 00:57:31;;;;;;;5.47;5.03;;;20.60;99.90;;;;;;5081466;28;20482;-85
2021/06/29 00:59:58;;;;;;;10.13;6.90;;;20.60;99.90;;;;;;5087321;28;20541;-82
2021/06/29 01:02:26;;;;;;;8.30;7.70;;;20.50;99.90;;;;;;5082176;28;20482;-83
2021/06/29 01:04:53;;;;;;;9.67;8.77;;;20.40;99.90;;;;;;5082783;28;20461;-82
2021/06/29 01:07:20;;;;;;;12.73;11.43;;;20.40;99.90;;;;;;5082346;28;21236;-83
2021/06/29 01:09:46;;;;;;;15.07;13.50;;;20.40;99.90;;;;;;5082529;28;20462;-82
2021/06/29 01:12:13;;;;;;;20.10;17.97;;;20.40;99.90;;;;;;5082839;28;20811;-83
2021/06/29 01:14:42;;;;;;;23.00;20.50;;;20.30;99.90;;;;;;5081742;28;20462;-82
2021/06/29 01:17:09;;;;;;;23.53;20.77;;;20.30;99.90;;;;;;5082764;28;20848;-83
2021/06/29 01:19:44;;;;;;;26.33;20.80;;;20.20;99.90;;;;;;5083361;28;20473;-82
2021/06/29 01:22:14;;;;;;;26.70;23.90;;;20.30;99.90;;;;;;5081410;28;20860;-82
2021/06/29 01:24:43;;;;;;;29.37;24.93;;;20.20;99.90;;;;;;5082300;28;20461;-85
2021/06/29 01:27:23;;;;;;;35.07;26.40;;;20.20;99.90;;;;;;5083920;28;20462;-84
2021/06/29 01:30:59;;;;;;;30.93;25.77;;;20.20;99.90;;;;;;5083342;28;20505;-86
2021/06/29 01:32:39;;;;;;;35.70;28.00;;;20.20;99.90;;;;;;5079880;28;20867;-85
2021/06/29 01:35:08;;;;;;;29.17;24.73;;;20.20;99.90;;;;;;5079481;28;20461;-82
2021/06/29 01:37:38;;;;;;;32.50;27.00;;;20.20;99.90;;;;;;5080920;28;20485;-84
2021/06/29 01:40:09;;;;;;;37.37;27.50;;;20.20;99.90;;;;;;5080307;28;20463;-82
2021/06/29 01:42:36;;;;;;;35.60;27.30;;;20.20;99.90;;;;;;5086636;28;20808;-83
2021/06/29 01:45:04;;;;;;;33.67;27.00;;;20.10;99.90;;;;;;5079867;28;20459;-83
2021/06/29 01:47:37;;;;;;;37.10;27.17;;;20.20;99.90;;;;;;5081438;28;21098;-83
2021/06/29 01:50:09;;;;;;;32.53;27.53;;;20.20;99.90;;;;;;5079576;28;20454;-82
2021/06/29 01:52:38;;;;;;;34.50;27.83;;;20.20;99.90;;;;;;5081645;28;20464;-83
2021/06/29 01:55:07;;;;;;;36.20;26.90;;;20.20;99.90;;;;;;5079653;28;20552;-83
2021/06/29 01:57:36;;;;;;;34.70;28.43;;;20.20;99.90;;;;;;5083544;28;20564;-83
2021/06/29 02:00:06;;;;;;;38.00;29.03;;;20.20;99.90;;;;;;5083159;28;20459;-83
2021/06/29 02:02:33;;;;;;;37.53;28.67;;;20.20;99.90;;;;;;5077999;28;20481;-83
2021/06/29 02:05:00;;;;;;;42.57;30.70;;;20.20;99.90;;;;;;5078903;28;20450;-83
2021/06/29 02:07:27;;;;;;;38.43;27.93;;;20.20;99.90;;;;;;5080684;28;20473;-83
2021/06/29 02:09:55;;;;;;;33.57;27.63;;;20.30;99.90;;;;;;5084501;28;20456;-83
2021/06/29 02:12:22;;;;;;;38.87;28.03;;;20.30;99.90;;;;;;5075494;28;20538;-83
2021/06/29 02:14:50;;;;;;;38.50;29.57;;;20.30;99.90;;;;;;5080900;28;20537;-85
2021/06/29 02:17:16;;;;;;;38.63;29.40;;;20.30;99.90;;;;;;5075874;28;20544;-84
2021/06/29 02:19:43;;;;;;;37.73;28.77;;;20.30;99.90;;;;;;5081771;28;20464;-85
2021/06/29 02:22:10;;;;;;;36.67;28.97;;;20.30;99.90;;;;;;5079266;28;21095;-83
2021/06/29 02:24:37;;;;;;;35.77;30.07;;;20.30;99.90;;;;;;5082240;28;20488;-83
2021/06/29 02:27:06;;;;;;;40.40;28.90;;;20.30;99.90;;;;;;5085498;28;20904;-85
2021/06/29 02:29:34;;;;;;;38.03;29.70;;;20.30;99.90;;;;;;5083970;28;20971;-85
2021/06/29 02:32:01;;;;;;;32.13;26.67;;;20.40;99.90;;;;;;5074360;28;20462;-82
2021/06/29 02:34:28;;;;;;;39.30;25.67;;;20.40;99.90;;;;;;5076106;28;20462;-83
2021/06/29 02:36:55;;;;;;;29.93;26.13;;;20.30;99.90;;;;;;5085060;28;20545;-83
2021/06/29 02:39:22;;;;;;;40.30;28.83;;;20.30;99.90;;;;;;5081890;28;20485;-83
2021/06/29 02:41:49;;;;;;;37.10;27.50;;;20.30;99.90;;;;;;5079668;28;20540;-83
2021/06/29 02:44:20;;;;;;;33.83;27.60;;;20.30;99.90;;;;;;5075685;28;20574;-83
2021/06/29 02:46:47;;;;;;;32.03;24.77;;;20.20;99.90;;;;;;5080433;28;20828;-83
2021/06/29 02:49:14;;;;;;;33.60;27.17;;;20.20;99.90;;;;;;5081132;28;20473;-83
2021/06/29 02:51:41;;;;;;;29.07;23.97;;;20.20;99.90;;;;;;5084599;28;20829;-83
2021/06/29 02:54:08;;;;;;;32.03;24.03;;;20.20;99.90;;;;;;5084372;28;20554;-83
2021/06/29 02:56:38;;;;;;;30.73;24.33;;;20.20;99.90;;;;;;5085877;28;20461;-84
2021/06/29 02:59:05;;;;;;;26.43;23.60;;;20.20;99.90;;;;;;5078519;28;20806;-83
2021/06/29 03:01:33;;;;;;;26.73;22.10;;;20.20;99.90;;;;;;5082623;28;20580;-83
2021/06/29 03:04:00;;;;;;;23.93;20.70;;;20.20;99.90;;;;;;5080033;28;20625;-83
2021/06/29 03:06:27;;;;;;;27.37;21.70;;;20.20;99.90;;;;;;5081572;28;20867;-82
2021/06/29 03:08:54;;;;;;;24.40;19.63;;;20.20;99.90;;;;;;5083600;28;20995;-83
2021/06/29 03:11:21;;;;;;;22.83;19.37;;;20.20;99.90;;;;;;5080424;28;20465;-83
2021/06/29 03:13:48;;;;;;;21.63;18.73;;;20.20;99.90;;;;;;5078429;28;20550;-83
2021/06/29 03:16:15;;;;;;;23.83;20.30;;;20.20;99.90;;;;;;5083381;28;20545;-83
2021/06/29 03:18:43;;;;;;;23.03;18.07;;;20.20;99.90;;;;;;5080926;28;20493;-83
2021/06/29 03:21:10;;;;;;;23.40;19.23;;;20.20;99.90;;;;;;5075679;28;20467;-83
2021/06/29 03:23:38;;;;;;;22.87;20.43;;;20.10;99.90;;;;;;5086980;28;20588;-85
2021/06/29 03:26:05;;;;;;;24.70;18.90;;;20.10;99.90;;;;;;5080668;28;20548;-83
2021/06/29 03:28:32;;;;;;;23.67;19.67;;;20.10;99.90;;;;;;5078370;28;20494;-82
2021/06/29 03:30:59;;;;;;;21.93;19.50;;;20.10;99.90;;;;;;5081505;28;20466;-84
2021/06/29 03:33:26;;;;;;;25.10;20.70;;;20.10;99.90;;;;;;5083398;28;20481;-82
2021/06/29 03:35:54;;;;;;;21.13;18.83;;;20.10;99.90;;;;;;5084118;28;20827;-83
2021/06/29 03:38:21;;;;;;;21.63;18.67;;;20.10;99.90;;;;;;5078806;28;20576;-82
2021/06/29 03:40:48;;;;;;;22.27;18.23;;;20.10;99.90;;;;;;5077004;28;20467;-82
2021/06/29 03:43:15;;;;;;;21.60;17.17;;;20.10;99.90;;;;;;5078008;28;20545;-82
2021/06/29 03:45:42;;;;;;;18.00;16.20;;;20.20;99.90;;;;;;5083154;28;20532;-82
2021/06/29 03:48:09;;;;;;;15.87;12.90;;;20.20;99.90;;;;;;5083183;28;20468;-83
2021/06/29 03:50:37;;;;;;;14.07;12.67;;;20.10;99.90;;;;;;5082552;28;20464;-84
2021/06/29 03:53:05;;;;;;;15.23;13.63;;;20.10;99.90;;;;;;5075983;28;20548;-83
2021/06/29 03:55:33;;;;;;;12.60;11.30;;;20.10;99.90;;;;;;5076835;28;20985;-83
2021/06/29 03:57:59;;;;;;;13.27;11.37;;;20.10;99.90;;;;;;5075074;28;20482;-86
2021/06/29 04:00:26;;;;;;;12.70;11.33;;;20.10;99.90;;;;;;5081252;28;20497;-82
2021/06/29 04:02:53;;;;;;;14.67;10.90;;;20.10;99.90;;;;;;5070976;28;20891;-84
2021/06/29 04:05:20;;;;;;;11.30;10.20;;;20.10;99.90;;;;;;5074304;28;20485;-83
2021/06/29 04:07:47;;;;;;;11.83;10.60;;;20.10;99.90;;;;;;5076817;28;20577;-83
2021/06/29 04:10:16;;;;;;;12.83;10.40;;;20.10;99.90;;;;;;5082664;28;21339;-83
2021/06/29 04:12:43;;;;;;;10.90;9.33;;;20.10;99.90;;;;;;5073147;28;20696;-83
2021/06/29 04:15:11;;;;;;;11.07;9.60;;;20.10;99.90;;;;;;5083115;28;20565;-82
2021/06/29 04:17:39;;;;;;;11.03;8.30;;;20.10;99.90;;;;;;5077108;28;20469;-82
2021/06/29 04:20:08;;;;;;;10.83;7.20;;;20.00;99.90;;;;;;5081870;28;20487;-83
2021/06/29 04:22:35;;;;;;;8.10;7.40;;;20.00;99.90;;;;;;5072996;28;20498;-84
2021/06/29 04:25:03;;;;;;;8.80;6.17;;;20.00;99.90;;;;;;5079786;28;20562;-82
2021/06/29 04:27:31;;;;;;;9.43;6.00;;;19.90;99.90;;;;;;5075420;28;20460;-83
2021/06/29 04:29:59;;;;;;;7.30;6.30;;;19.90;99.90;;;;;;5079368;28;20527;-83
2021/06/29 04:32:25;;;;;;;6.33;5.73;;;19.90;99.90;;;;;;5076268;28;20981;-83
2021/06/29 04:34:52;;;;;;;10.87;5.20;;;19.90;99.90;;;;;;5077535;28;20553;-83
2021/06/29 04:37:19;;;;;;;5.80;4.80;;;19.90;99.90;;;;;;5082050;28;21031;-85
2021/06/29 04:39:46;;;;;;;5.30;4.80;;;19.90;99.90;;;;;;5077683;28;20581;-82
2021/06/29 04:42:13;;;;;;;5.83;5.10;;;19.90;99.90;;;;;;5074245;28;20988;-82
2021/06/29 04:44:41;;;;;;;8.63;3.90;;;19.90;99.90;;;;;;5080352;28;20468;-83
2021/06/29 04:47:10;;;;;;;5.83;3.97;;;19.90;99.90;;;;;;5076263;28;20582;-83
2021/06/29 04:49:38;;;;;;;5.50;4.40;;;19.90;99.90;;;;;;5078229;28;20556;-84
2021/06/29 04:52:05;;;;;;;7.00;4.80;;;19.80;99.90;;;;;;5080320;28;20465;-84
2021/06/29 04:54:32;;;;;;;6.17;4.63;;;19.80;99.90;;;;;;5081474;28;20457;-82
2021/06/29 04:56:59;;;;;;;6.53;4.17;;;19.80;99.90;;;;;;5076678;28;21024;-83
2021/06/29 04:59:26;;;;;;;7.40;4.10;;;19.80;99.90;;;;;;5080321;28;20493;-83
2021/06/29 05:01:54;;;;;;;5.53;5.03;;;19.80;99.90;;;;;;5081849;28;20501;-83
2021/06/29 05:04:21;;;;;;;5.37;3.70;;;19.80;99.90;;;;;;5078811;28;20843;-83
2021/06/29 05:06:48;;;;;;;5.00;4.50;;;19.90;99.90;;;;;;5081182;28;20476;-84
2021/06/29 05:09:15;;;;;;;9.03;4.20;;;19.90;99.90;;;;;;5080852;28;20490;-83
2021/06/29 05:11:41;;;;;;;9.20;4.40;;;19.90;99.90;;;;;;5080385;28;20516;-83
2021/06/29 05:14:09;;;;;;;5.97;3.80;;;19.90;99.90;;;;;;5083315;28;20966;-83
2021/06/29 05:16:36;;;;;;;12.00;4.23;;;19.90;99.90;;;;;;5078644;28;20457;-84
2021/06/29 05:19:04;;;;;;;12.53;4.70;;;19.90;99.90;;;;;;5082882;28;20487;-83
2021/06/29 05:21:31;;;;;;;10.30;4.40;;;19.90;99.90;;;;;;5079030;28;20492;-83
2021/06/29 05:23:58;;;;;;;11.30;4.90;;;19.90;99.90;;;;;;5070933;28;20481;-83
2021/06/29 05:26:25;;;;;;;8.30;4.80;;;19.90;99.90;;;;;;5084449;28;20496;-83
2021/06/29 05:28:52;;;;;;;12.83;5.83;;;19.90;99.90;;;;;;5073304;28;20827;-84
2021/06/29 05:31:19;;;;;;;8.13;4.90;;;20.00;99.90;;;;;;5081721;28;21008;-84
2021/06/29 05:33:46;;;;;;;8.03;5.37;;;20.00;99.90;;;;;;5077792;28;20829;-83
2021/06/29 05:36:14;;;;;;;12.40;6.07;;;20.00;99.90;;;;;;5074817;28;20469;-85
2021/06/29 05:38:41;;;;;;;10.50;6.03;;;20.00;99.90;;;;;;5082032;28;20915;-83
2021/06/29 05:41:08;;;;;;;6.40;5.80;;;20.00;99.90;;;;;;5076488;28;20474;-83
2021/06/29 05:43:35;;;;;;;10.60;4.93;;;20.10;99.90;;;;;;5081524;28;20460;-83
2021/06/29 05:46:03;;;;;;;8.57;4.87;;;20.10;99.90;;;;;;5085372;28;20458;-84
2021/06/29 05:48:32;;;;;;;7.30;5.60;;;20.10;99.90;;;;;;5084046;28;20454;-84
2021/06/29 05:50:59;;;;;;;5.27;4.60;;;20.20;99.90;;;;;;5079022;28;20466;-83
2021/06/29 05:53:29;;;;;;;5.93;4.50;;;20.20;99.90;;;;;;5086680;28;20465;-83
2021/06/29 05:55:57;;;;;;;4.63;4.23;;;20.20;99.90;;;;;;5089243;28;20506;-82
2021/06/29 05:58:24;;;;;;;4.27;3.80;;;20.20;99.90;;;;;;5074767;28;20703;-83
2021/06/29 06:00:51;;;;;;;8.67;4.20;;;20.20;99.90;;;;;;5079618;28;20994;-82
2021/06/29 06:03:20;;;;;;;5.07;4.30;;;20.20;99.90;;;;;;5077609;28;20541;-82
2021/06/29 06:05:47;;;;;;;4.80;4.33;;;20.20;99.90;;;;;;5088651;28;20479;-83
2021/06/29 06:08:14;;;;;;;11.10;4.53;;;20.20;99.90;;;;;;5077507;28;20462;-73
2021/06/29 06:10:43;;;;;;;6.00;5.40;;;20.20;99.90;;;;;;5080418;28;20974;-74
2021/06/29 06:13:10;;;;;;;11.03;4.57;;;20.20;99.90;;;;;;5074202;28;20460;-74
2021/06/29 06:15:38;;;;;;;5.43;4.93;;;20.20;99.90;;;;;;5074385;28;20557;-73
2021/06/29 06:18:06;;;;;;;5.50;4.47;;;20.30;99.90;;;;;;5084753;28;20462;-74
2021/06/29 06:20:34;;;;;;;6.97;4.40;;;20.30;99.90;;;;;;5077323;28;20481;-73
2021/06/29 06:23:01;;;;;;;7.23;4.30;;;20.30;99.90;;;;;;5079208;28;20557;-74
2021/06/29 06:25:28;;;;;;;4.63;3.83;;;20.40;99.90;;;;;;5076103;28;20502;-74
2021/06/29 06:27:57;;;;;;;7.03;4.17;;;20.40;99.90;;;;;;5075006;28;20500;-73
2021/06/29 06:30:24;;;;;;;7.23;4.93;;;20.40;99.90;;;;;;5076842;28;20456;-73
2021/06/29 06:32:51;;;;;;;4.67;4.17;;;20.30;99.90;;;;;;5072797;28;20492;-73
2021/06/29 06:35:18;;;;;;;5.37;4.50;;;20.30;99.90;;;;;;5080717;28;20468;-73
2021/06/29 06:37:45;;;;;;;7.43;4.20;;;20.40;99.90;;;;;;5071572;28;20456;-73
2021/06/29 06:40:13;;;;;;;4.30;3.90;;;20.40;99.90;;;;;;5075855;28;20492;-73
2021/06/29 06:42:41;;;;;;;4.10;3.70;;;20.40;99.90;;;;;;5082895;28;20457;-73
2021/06/29 06:45:11;;;;;;;5.93;3.70;;;20.40;99.90;;;;;;5073562;28;20454;-74
2021/06/29 06:47:38;;;;;;;9.07;3.93;;;20.40;99.90;;;;;;5066845;28;20476;-73
2021/06/29 06:50:07;;;;;;;7.07;4.27;;;20.40;99.90;;;;;;5070742;28;20465;-74
2021/06/29 06:52:35;;;;;;;6.63;5.00;;;20.40;99.90;;;;;;5074624;28;20489;-73
2021/06/29 06:55:02;;;;;;;6.80;5.00;;;20.40;99.90;;;;;;5080136;28;20457;-73
2021/06/29 06:57:28;;;;;;;7.00;5.37;;;20.40;99.90;;;;;;5077574;28;21242;-73
2021/06/29 06:59:56;;;;;;;5.83;4.70;;;20.40;99.90;;;;;;5079220;28;20487;-73
2021/06/29 07:02:24;;;;;;;5.70;4.70;;;20.40;99.90;;;;;;5080224;28;20988;-73
2021/06/29 07:04:51;;;;;;;7.37;4.97;;;20.40;99.90;;;;;;5075788;28;20480;-73
2021/06/29 07:07:17;;;;;;;8.40;4.40;;;20.40;99.90;;;;;;5067288;28;20942;-73
2021/06/29 07:09:44;;;;;;;7.70;4.70;;;20.50;99.90;;;;;;5083663;28;20465;-73
2021/06/29 07:12:12;;;;;;;5.40;4.57;;;20.50;99.90;;;;;;5076163;28;20462;-71
2021/06/29 07:14:39;;;;;;;4.50;3.87;;;20.50;99.90;;;;;;5074706;28;20454;-71
2021/06/29 07:17:06;;;;;;;5.40;4.27;;;20.50;99.90;;;;;;5077524;28;20980;-71
2021/06/29 07:19:34;;;;;;;4.30;3.70;;;20.50;99.90;;;;;;5078868;28;20492;-71
2021/06/29 07:22:01;;;;;;;5.73;4.17;;;20.50;99.90;;;;;;5079436;28;20466;-71
2021/06/29 07:24:28;;;;;;;3.53;3.10;;;20.50;99.90;;;;;;5072510;28;20488;-71
2021/06/29 07:26:55;;;;;;;6.60;3.77;;;20.60;99.90;;;;;;5076315;28;21100;-71
2021/06/29 07:29:22;;;;;;;4.50;3.70;;;20.70;99.90;;;;;;5074656;28;20461;-71
2021/06/29 07:31:49;;;;;;;4.87;4.37;;;20.70;99.90;;;;;;5075421;28;20462;-71
2021/06/29 07:34:17;;;;;;;4.30;3.30;;;20.70;99.90;;;;;;5077987;28;20516;-71
2021/06/29 07:36:45;;;;;;;4.33;3.50;;;20.80;99.90;;;;;;5077550;28;20467;-71
2021/06/29 07:39:12;;;;;;;4.80;3.00;;;20.90;99.90;;;;;;5079260;28;20484;-71
2021/06/29 07:41:40;;;;;;;3.47;3.00;;;20.90;99.90;;;;;;5076518;28;20560;-71
2021/06/29 07:44:07;;;;;;;4.70;3.73;;;21.00;99.90;;;;;;5075249;28;20980;-71
2021/06/29 07:46:34;;;;;;;4.70;3.60;;;21.10;99.90;;;;;;5074523;28;20465;-72
2021/06/29 07:49:01;;;;;;;4.73;4.07;;;21.10;99.90;;;;;;5072903;28;20462;-71
2021/06/29 07:51:28;;;;;;;3.97;3.57;;;21.20;99.90;;;;;;5080229;28;20531;-71
2021/06/29 07:53:56;;;;;;;6.70;3.50;;;21.20;99.90;;;;;;5073051;28;20459;-71
2021/06/29 07:56:24;;;;;;;4.30;3.77;;;21.30;99.90;;;;;;5069310;28;20466;-71
2021/06/29 07:58:51;;;;;;;5.37;4.20;;;21.40;99.90;;;;;;5071419;28;20969;-71
2021/06/29 08:01:20;;;;;;;5.27;4.10;;;21.50;99.90;;;;;;5073465;28;20495;-71
2021/06/29 08:03:47;;;;;;;4.30;3.47;;;21.60;99.90;;;;;;5075245;28;20508;-84
2021/06/29 08:06:15;;;;;;;4.13;3.40;;;21.70;99.90;;;;;;5073618;28;20541;-83
2021/06/29 08:08:41;;;;;;;6.40;4.10;;;21.80;99.90;;;;;;5072220;28;20462;-81
2021/06/29 08:11:11;;;;;;;6.47;4.30;;;21.80;99.90;;;;;;5073651;28;21100;-83
2021/06/29 08:13:39;;;;;;;6.00;4.40;;;21.90;99.90;;;;;;5073215;28;20833;-80
2021/06/29 08:16:07;;;;;;;7.87;4.93;;;22.00;99.90;;;;;;5082279;28;20462;-80
2021/06/29 08:18:35;;;;;;;7.03;5.30;;;22.00;99.90;;;;;;5073697;28;20466;-82
2021/06/29 08:21:02;;;;;;;5.20;4.53;;;22.20;99.90;;;;;;5071082;28;20852;-83
2021/06/29 08:23:30;;;;;;;9.03;4.80;;;22.10;99.90;;;;;;5069876;28;20988;-81
2021/06/29 08:25:57;;;;;;;4.80;4.30;;;22.20;99.90;;;;;;5067200;28;22425;-81
2021/06/29 08:28:26;;;;;;;5.00;3.93;;;22.30;99.90;;;;;;5070273;28;20459;-81
2021/06/29 08:30:54;;;;;;;7.43;3.87;;;22.40;99.90;;;;;;5078122;28;20540;-81
2021/06/29 08:33:22;;;;;;;4.60;3.67;;;22.50;99.90;;;;;;5070307;28;21044;-84
2021/06/29 08:35:50;;;;;;;5.83;3.40;;;22.60;99.90;;;;;;5074244;28;20470;-81
2021/06/29 08:38:18;;;;;;;4.83;3.43;;;22.70;99.90;;;;;;5074407;28;20772;-80
2021/06/29 08:40:45;;;;;;;6.47;4.13;;;22.80;99.90;;;;;;5077029;28;20840;-81
2021/06/29 08:43:13;;;;;;;6.00;4.23;;;23.00;99.90;;;;;;5069948;28;20546;-80
2021/06/29 08:45:42;;;;;;;5.90;5.27;;;23.10;99.90;;;;;;5073463;28;20462;-81
2021/06/29 08:48:09;;;;;;;5.03;4.40;;;23.20;99.90;;;;;;5069756;28;20465;-83
2021/06/29 08:50:38;;;;;;;6.13;4.53;;;23.30;99.90;;;;;;5069822;28;20894;-82
2021/06/29 08:53:07;;;;;;;6.57;4.13;;;23.40;99.90;;;;;;5075707;28;20988;-84
2021/06/29 08:55:36;;;;;;;5.93;3.53;;;23.40;99.90;;;;;;5075617;28;20466;-82
2021/06/29 08:58:03;;;;;;;5.80;4.67;;;23.50;99.90;;;;;;5075742;28;20462;-82
2021/06/29 09:00:30;;;;;;;5.90;5.03;;;23.60;99.90;;;;;;5068431;28;20477;-84
2021/06/29 09:02:59;;;;;;;7.27;4.97;;;23.70;99.90;;;;;;5073417;28;20461;-81
2021/06/29 09:05:27;;;;;;;5.20;3.60;;;23.70;99.90;;;;;;5072048;28;20469;-81
2021/06/29 09:08:05;;;;;;;5.87;4.20;;;23.60;99.90;;;;;;5073727;28;20570;-83
2021/06/29 09:10:33;;;;;;;5.80;4.73;;;23.60;99.90;;;;;;5076515;28;20508;-82
2021/06/29 09:13:00;;;;;;;5.83;4.10;;;23.60;99.90;;;;;;5082634;28;20484;-83
2021/06/29 09:15:31;;;;;;;9.80;4.90;;;23.60;99.90;;;;;;5075995;28;20980;-81
2021/06/29 09:18:09;;;;;;;5.67;4.63;;;23.60;99.90;;;;;;5072790;28;20977;-82
2021/06/29 09:20:37;;;;;;;3.90;3.50;;;23.70;99.90;;;;;;5077233;28;20493;-81
2021/06/29 09:23:10;;;;;;;6.53;4.70;;;23.70;99.90;;;;;;5053242;28;20482;-84
2021/06/29 09:25:38;;;;;;;6.20;4.10;;;23.70;99.90;;;;;;5077226;28;21056;-82
2021/06/29 09:28:05;;;;;;;5.90;4.10;;;23.70;99.90;;;;;;5077689;28;20474;-84
2021/06/29 09:30:37;;;;;;;5.50;4.47;;;23.80;99.90;;;;;;5078394;28;20468;-81
2021/06/29 09:33:09;;;;;;;8.70;3.83;;;23.80;99.90;;;;;;5075322;28;20555;-82
2021/06/29 09:35:37;;;;;;;6.70;3.73;;;23.90;99.90;;;;;;5074293;28;20465;-81
2021/06/29 09:38:05;;;;;;;5.30;3.87;;;23.90;99.90;;;;;;5076875;28;20964;-81
2021/06/29 09:40:33;;;;;;;4.23;3.60;;;24.00;99.90;;;;;;5074646;28;20516;-83
2021/06/29 09:43:13;;;;;;;7.80;3.90;;;24.10;99.90;;;;;;5077068;28;20462;-82
2021/06/29 09:45:44;;;;;;;10.33;4.97;;;24.20;99.90;;;;;;5076276;28;20760;-81
2021/06/29 09:48:14;;;;;;;5.40;4.53;;;24.30;99.90;;;;;;5064053;28;20483;-81
2021/06/29 09:50:46;;;;;;;5.33;3.60;;;24.20;99.90;;;;;;5065005;28;20476;-81
2021/06/29 09:53:25;;;;;;;4.90;4.27;;;24.20;99.90;;;;;;5076667;28;20799;-83
2021/06/29 09:55:55;;;;;;;6.53;4.53;;;24.20;99.90;;;;;;5079041;28;20580;-82
2021/06/29 09:58:23;;;;;;;6.43;5.10;;;24.30;99.90;;;;;;5074570;28;21040;-83
2021/06/29 10:00:53;;;;;;;8.93;4.57;;;24.40;99.90;;;;;;5077661;28;20644;-81
2021/06/29 10:03:28;;;;;;;8.60;5.73;;;24.40;99.90;;;;;;5069498;28;20466;-81
2021/06/29 10:05:56;;;;;;;9.10;6.77;;;24.50;99.90;;;;;;5076276;28;20540;-82
2021/06/29 10:08:25;;;;;;;7.53;5.77;;;24.50;99.90;;;;;;5074689;28;20460;-81
2021/06/29 10:11:08;;;;;;;8.70;6.07;;;24.50;99.90;;;;;;5078900;28;20499;-81
2021/06/29 10:13:36;;;;;;;9.23;6.97;;;24.50;99.90;;;;;;5076485;28;20949;-82
2021/06/29 10:16:05;;;;;;;9.60;6.40;;;24.50;99.90;;;;;;5065586;28;20472;-82
2021/06/29 10:18:37;;;;;;;7.83;6.27;;;24.60;99.90;;;;;;5070879;28;20523;-83
2021/06/29 10:21:15;;;;;;;10.20;5.93;;;24.70;99.90;;;;;;5072876;28;20589;-83
2021/06/29 10:23:43;;;;;;;6.23;5.20;;;24.90;99.90;;;;;;5078450;28;20485;-81
2021/06/29 10:26:10;;;;;;;6.73;5.80;;;25.00;99.90;;;;;;5083154;28;20453;-81
2021/06/29 10:28:38;;;;;;;5.53;4.87;;;25.20;99.90;;;;;;5080833;28;20462;-82
2021/06/29 10:31:05;;;;;;;4.90;4.50;;;25.30;99.90;;;;;;5081465;28;20461;-81
2021/06/29 10:33:34;;;;;;;4.90;4.17;;;25.40;99.90;;;;;;5072812;28;20497;-82
2021/06/29 10:36:02;;;;;;;6.83;3.80;;;25.50;99.90;;;;;;5076373;28;20461;-81
2021/06/29 10:38:29;;;;;;;6.27;4.17;;;25.60;99.90;;;;;;5078963;28;20537;-80
2021/06/29 10:40:57;;;;;;;3.67;3.37;;;25.60;99.90;;;;;;5080474;28;20481;-81
2021/06/29 10:43:25;;;;;;;3.60;3.27;;;25.70;99.90;;;;;;5078974;28;20464;-81
2021/06/29 10:45:53;;;;;;;2.53;2.10;;;25.80;99.90;;;;;;5074679;28;20596;-81
2021/06/29 10:48:21;;;;;;;3.70;2.33;;;25.90;99.90;;;;;;5076427;28;20462;-81
2021/06/29 10:50:52;;;;;;;3.07;2.30;;;25.90;99.90;;;;;;5079282;28;20551;-81
2021/06/29 10:53:39;;;;;;;2.40;1.80;;;26.00;99.90;;;;;;5068864;28;20834;-81
2021/06/29 10:56:08;;;;;;;4.70;2.30;;;26.10;99.90;;;;;;5082647;28;20466;-82
2021/06/29 10:58:41;;;;;;;3.63;1.80;;;26.10;99.90;;;;;;5082872;28;21203;-81
2021/06/29 11:01:22;;;;;;;3.60;1.47;;;26.20;99.90;;;;;;5076370;28;20493;-82
2021/06/29 11:03:49;;;;;;;1.93;1.70;;;26.30;99.90;;;;;;5079251;28;21223;-82
2021/06/29 11:06:43;;;;;;;1.33;1.23;;;26.30;99.90;;;;;;5080571;28;20993;-82
2021/06/29 11:09:13;;;;;;;1.97;1.57;;;26.40;99.90;;;;;;5072807;28;20472;-81
2021/06/29 11:11:40;;;;;;;2.13;1.70;;;26.50;99.90;;;;;;5072091;28;20487;-84
2021/06/29 11:14:26;;;;;;;1.73;1.53;;;26.50;99.90;;;;;;5076573;28;20462;-82
2021/06/29 11:16:56;;;;;;;1.83;1.53;;;26.60;99.90;;;;;;5076171;28;20468;-81
2021/06/29 11:19:43;;;;;;;2.03;1.80;;;26.60;99.90;;;;;;5075455;28;20514;-81
2021/06/29 11:22:43;;;;;;;3.23;1.93;;;26.70;99.90;;;;;;5071137;28;20866;-81
2021/06/29 11:25:12;;;;;;;2.80;1.53;;;26.80;99.90;;;;;;5079128;28;20943;-82
2021/06/29 11:28:02;;;;;;;1.57;1.37;;;26.80;99.90;;;;;;5077071;28;20832;-81
2021/06/29 11:31:10;;;;;;;2.10;1.90;;;26.90;99.90;;;;;;5074671;28;20969;-81
2021/06/29 11:33:49;;;;;;;3.20;1.97;;;26.90;99.90;;;;;;5071254;28;20468;-83
2021/06/29 11:36:44;;;;;;;2.80;1.77;;;27.00;99.90;;;;;;5077072;28;20461;-82
2021/06/29 11:39:35;;;;;;;3.00;2.80;;;27.10;99.90;;;;;;5067342;28;20469;-81
2021/06/29 11:42:07;;;;;;;2.30;2.10;;;27.10;99.90;;;;;;5074118;28;20520;-82
2021/06/29 11:45:03;;;;;;;2.37;2.17;;;27.10;99.90;;;;;;5071113;28;20970;-83
2021/06/29 11:47:39;;;;;;;1.87;1.77;;;27.10;99.90;;;;;;5070064;28;20466;-83
2021/06/29 11:50:25;;;;;;;3.40;1.53;;;27.10;99.90;;;;;;5075631;28;20955;-84
2021/06/29 11:52:52;;;;;;;3.93;2.27;;;27.10;99.90;;;;;;5072405;28;20466;-84
2021/06/29 11:55:20;;;;;;;1.93;1.77;;;27.20;99.90;;;;;;5077008;28;20466;-83
2021/06/29 11:57:50;;;;;;;1.97;1.60;;;27.30;99.90;;;;;;5077016;28;20471;-83
2021/06/29 12:00:20;;;;;;;1.90;1.80;;;27.50;99.90;;;;;;5076750;28;20552;-83
2021/06/29 12:02:48;;;;;;;3.30;2.33;;;27.50;99.90;;;;;;5081356;28;20485;-83
2021/06/29 12:05:18;;;;;;;2.27;2.07;;;27.40;99.90;;;;;;5070306;28;20471;-83
2021/06/29 12:07:48;;;;;;;3.70;2.20;;;27.20;99.90;;;;;;5071919;28;20976;-83
2021/06/29 12:10:17;;;;;;;3.70;2.30;;;27.10;99.90;;;;;;5080066;28;20473;-83
2021/06/29 12:12:45;;;;;;;4.80;2.00;;;27.10;99.90;;;;;;5070914;28;20549;-83
2021/06/29 12:15:17;;;;;;;3.00;2.70;;;27.20;99.90;;;;;;5079195;28;20541;-84
2021/06/29 12:17:50;;;;;;;3.50;2.27;;;27.30;99.90;;;;;;5079091;28;20626;-82
2021/06/29 12:20:19;;;;;;;3.40;2.60;;;27.20;99.90;;;;;;5075230;28;20565;-83
2021/06/29 12:22:46;;;;;;;2.53;2.33;;;27.20;99.90;;;;;;5072851;28;20458;-82
2021/06/29 12:25:19;;;;;;;3.40;1.90;;;27.10;99.90;;;;;;5076248;28;20949;-83
2021/06/29 12:27:47;;;;;;;3.53;2.87;;;26.90;99.90;;;;;;5072176;28;20459;-84
2021/06/29 12:30:26;;;;;;;2.50;2.10;;;26.90;99.90;;;;;;5069983;28;20462;-83
2021/06/29 12:32:53;;;;;;;3.00;2.00;;;27.00;99.90;;;;;;5076541;28;21070;-86
2021/06/29 12:35:21;;;;;;;2.47;2.27;;;27.20;99.90;;;;;;5070663;28;20826;-82
2021/06/29 12:37:52;;;;;;;4.53;2.60;;;27.30;99.90;;;;;;5071838;28;20458;-83
2021/06/29 12:40:19;;;;;;;3.07;2.50;;;27.40;99.90;;;;;;5074465;28;20450;-83
2021/06/29 12:42:47;;;;;;;5.23;2.50;;;27.40;99.90;;;;;;5073161;28;20719;-85
2021/06/29 12:45:14;;;;;;;2.87;2.67;;;27.40;99.90;;;;;;5076171;28;20466;-83
2021/06/29 12:47:43;;;;;;;2.40;2.20;;;27.50;99.90;;;;;;5071669;28;20465;-83
2021/06/29 12:50:10;;;;;;;2.43;2.23;;;27.60;99.90;;;;;;5072358;28;20996;-83